Pagrindinis puslapis
METAR-TAF:

METAR-TAF

Oro uostai :

Nadžafas, Irakas

platuma: 31-59-23N, ilguma: 44-24-15E, Aukštis: 31 m

Dabartinis oras

Ataskaita buvo paskelbta 58 minutes, ne 03:00 UTC
Ramus vėjas
Temperatūra 15°C
Drėgmė 48%
Slėgis 1016 hPa
Matomumas: 7000 m

METAR: ORNI 300300Z 00000KT 7000 NSC 15/04 Q1016 NOSIG

Laikas: 06:58 (03:58 UTC)

Prognozė

Ataskaita buvo paskelbta 5 valandos ir 58 minutes, ne 22:00 UTC
Prognozė galioja nuo 30 metu 00 UTC su 30 metu 24 UTC
Vėjas 12 kt iš Vakarų/Šiaurės Vakarų
Matomumas: 7000 m

TAF: ORNI 292200Z 3000/3024 30012KT 7000 NSC

Orai ataskaitas ir orų prognozės (METAR, TAF).

turimą stotys yra geltonos ir raudonos taškus žemėlapyje.

Perkelti pele per norėdami pamatyti stoties vardą.

Tada spustelėkite, norėdami matyti oro stebėjimo ir prognozės.

Norėdami pakeisti žemėlapį: spustelėkite ant žalios mygtukų su juodo kryžiaus žemyn,; žalią mygtuką su brūkšneliu, jei norite nutolinti; arba žalių rodyklių gretimoms žemėlapius.


METAR-TAF: